createdAt,value
2022-10-25T00:02:19.980Z,6.30
2022-10-25T00:04:47.467Z,5.90
2022-10-25T00:07:14.611Z,7.18
2022-10-25T00:09:43.869Z,7.78
2022-10-25T00:12:10.576Z,7.95
2022-10-25T00:14:37.169Z,10.05
2022-10-25T00:17:03.929Z,9.02
2022-10-25T00:19:30.678Z,9.48
2022-10-25T00:21:57.682Z,8.88
2022-10-25T00:24:24.336Z,8.45
2022-10-25T00:26:51.023Z,7.78
2022-10-25T00:29:18.122Z,7.38
2022-10-25T00:31:45.035Z,7.72
2022-10-25T00:34:11.714Z,7.03
2022-10-25T00:36:38.402Z,8.20
2022-10-25T00:39:05.130Z,8.15
2022-10-25T00:41:33.859Z,9.02
2022-10-25T00:44:38.521Z,7.40
2022-10-25T00:47:18.122Z,7.97
2022-10-25T00:49:52.848Z,7.38
2022-10-25T00:52:19.790Z,7.13
2022-10-25T00:54:51.120Z,7.10
2022-10-25T00:57:22.562Z,7.75
2022-10-25T00:59:49.500Z,8.30
2022-10-25T01:02:17.945Z,8.07
2022-10-25T01:04:44.694Z,7.68
2022-10-25T01:07:11.665Z,8.65
2022-10-25T01:09:39.723Z,7.60
2022-10-25T01:12:06.474Z,8.13
2022-10-25T01:14:40.750Z,8.07
2022-10-25T01:17:19.840Z,7.45
2022-10-25T01:20:15.665Z,7.93
2022-10-25T01:25:56.431Z,7.82
2022-10-25T01:28:54.893Z,7.43
2022-10-25T01:31:32.921Z,7.45
2022-10-25T01:34:26.952Z,8.05
2022-10-25T01:37:05.603Z,7.40
2022-10-25T01:39:37.893Z,8.52
2022-10-25T01:42:27.889Z,8.02
2022-10-25T01:45:21.182Z,8.20
2022-10-25T01:47:51.991Z,8.63
2022-10-25T01:50:26.454Z,9.55
2022-10-25T01:55:31.251Z,8.95
2022-10-25T01:58:19.150Z,9.23
2022-10-25T02:01:02.026Z,8.93
2022-10-25T02:03:52.448Z,8.35
2022-10-25T02:06:35.160Z,7.72
2022-10-25T02:09:34.166Z,9.70
2022-10-25T02:12:02.419Z,9.23
2022-10-25T02:14:41.513Z,10.05
2022-10-25T02:17:17.314Z,10.52
2022-10-25T02:19:49.334Z,10.15
2022-10-25T02:22:18.324Z,9.43
2022-10-25T02:24:47.078Z,9.05
2022-10-25T02:27:15.064Z,8.32
2022-10-25T02:29:44.447Z,8.00
2022-10-25T02:32:11.189Z,7.82
2022-10-25T02:34:39.121Z,8.75
2022-10-25T02:37:06.054Z,9.07
2022-10-25T02:39:34.345Z,9.25
2022-10-25T02:42:04.534Z,9.15
2022-10-25T02:44:31.761Z,8.73
2022-10-25T02:46:58.694Z,8.98
2022-10-25T02:49:25.518Z,8.95
2022-10-25T02:54:24.053Z,9.90
2022-10-25T02:56:52.342Z,9.63
2022-10-25T02:59:22.346Z,10.10
2022-10-25T03:01:49.166Z,9.05
2022-10-25T03:04:15.981Z,9.32
2022-10-25T03:06:42.671Z,9.18
2022-10-25T03:09:09.449Z,9.82
2022-10-25T03:11:36.108Z,9.20
2022-10-25T03:14:02.806Z,9.13
2022-10-25T03:16:30.291Z,9.40
2022-10-25T03:18:58.205Z,9.05
2022-10-25T03:21:25.389Z,9.30
2022-10-25T03:23:52.478Z,9.73
2022-10-25T03:26:19.253Z,8.73
2022-10-25T03:28:46.159Z,10.05
2022-10-25T03:31:15.120Z,9.80
2022-10-25T03:33:42.760Z,9.70
2022-10-25T03:36:10.043Z,8.57
2022-10-25T03:38:36.896Z,8.88
2022-10-25T03:41:04.115Z,9.45
2022-10-25T03:43:33.476Z,8.70
2022-10-25T03:46:00.296Z,9.23
2022-10-25T03:48:27.249Z,8.85
2022-10-25T03:50:54.383Z,8.48
2022-10-25T03:53:21.225Z,9.13
2022-10-25T03:55:49.723Z,9.30
2022-10-25T03:58:17.294Z,9.18
2022-10-25T04:00:44.124Z,9.00
2022-10-25T04:03:10.942Z,8.85
2022-10-25T04:05:37.749Z,10.10
2022-10-25T04:08:04.731Z,10.02
2022-10-25T04:10:31.772Z,10.05
2022-10-25T04:12:58.919Z,9.20
2022-10-25T04:15:25.569Z,8.93
2022-10-25T04:17:53.362Z,8.90
2022-10-25T04:20:20.905Z,10.05
2022-10-25T04:22:54.372Z,9.15
2022-10-25T04:25:21.980Z,10.30
2022-10-25T04:27:51.958Z,8.60
2022-10-25T04:30:18.820Z,8.65
2022-10-25T04:32:45.955Z,9.60
2022-10-25T04:35:13.142Z,10.45
2022-10-25T04:37:39.876Z,9.85
2022-10-25T04:40:07.321Z,11.20
2022-10-25T04:42:34.465Z,10.55
2022-10-25T04:45:01.961Z,9.73
2022-10-25T04:47:33.121Z,9.85
2022-10-25T04:50:00.136Z,9.65
2022-10-25T04:52:29.657Z,9.88
2022-10-25T04:54:56.834Z,10.50
2022-10-25T04:57:24.428Z,9.82
2022-10-25T04:59:52.454Z,9.82
2022-10-25T05:02:19.301Z,9.60
2022-10-25T05:04:45.979Z,9.57
2022-10-25T05:07:12.774Z,10.25
2022-10-25T05:09:41.672Z,10.60
2022-10-25T05:12:11.970Z,9.18
2022-10-25T05:14:38.706Z,10.05
2022-10-25T05:17:05.529Z,9.13
2022-10-25T05:19:32.226Z,9.07
2022-10-25T05:21:58.886Z,10.05
2022-10-25T05:24:25.752Z,8.93
2022-10-25T05:26:52.569Z,11.52
2022-10-25T05:29:19.259Z,9.43
2022-10-25T05:31:46.088Z,10.48
2022-10-25T05:34:12.739Z,9.52
2022-10-25T05:36:39.423Z,9.63
2022-10-25T05:39:06.179Z,8.77
2022-10-25T05:41:36.050Z,9.93
2022-10-25T05:44:04.851Z,8.32
2022-10-25T05:46:34.371Z,8.68
2022-10-25T05:49:01.245Z,9.27
2022-10-25T05:51:35.165Z,8.93
2022-10-25T05:54:09.117Z,8.40
2022-10-25T05:56:36.738Z,8.60
2022-10-25T05:59:11.975Z,10.15
2022-10-25T06:01:41.329Z,9.75
2022-10-25T06:04:09.353Z,10.45
2022-10-25T06:06:37.367Z,9.50
2022-10-25T06:09:05.074Z,9.43
2022-10-25T06:11:35.292Z,11.30
2022-10-25T06:14:02.530Z,11.15
2022-10-25T06:16:29.626Z,12.65
2022-10-25T06:18:57.154Z,12.82
2022-10-25T06:21:28.747Z,11.90
2022-10-25T06:23:56.306Z,11.93
2022-10-25T06:26:25.785Z,11.90
2022-10-25T06:28:55.280Z,12.23
2022-10-25T06:31:22.728Z,14.18
2022-10-25T06:33:49.665Z,12.38
2022-10-25T06:36:18.750Z,11.68
2022-10-25T06:38:46.375Z,9.65
2022-10-25T06:41:15.255Z,10.20
2022-10-25T06:43:42.152Z,10.48
2022-10-25T06:46:28.409Z,13.43
2022-10-25T06:48:57.628Z,13.80
2022-10-25T06:51:25.813Z,12.15
2022-10-25T06:54:01.201Z,14.02
2022-10-25T06:56:28.817Z,12.52
2022-10-25T06:58:56.176Z,13.40
2022-10-25T07:01:24.558Z,13.70
2022-10-25T07:03:53.636Z,16.40
2022-10-25T07:06:28.087Z,15.07
2022-10-25T07:08:57.046Z,15.13
2022-10-25T07:11:25.432Z,12.63
2022-10-25T07:13:52.251Z,14.25
2022-10-25T07:16:20.644Z,15.00
2022-10-25T07:18:48.345Z,14.02
2022-10-25T07:21:21.208Z,11.68
2022-10-25T07:23:49.667Z,12.80
2022-10-25T07:26:29.117Z,12.00
2022-10-25T07:28:57.030Z,11.98
2022-10-25T07:31:29.610Z,11.90
2022-10-25T07:33:59.483Z,11.50
2022-10-25T07:36:26.466Z,12.43
2022-10-25T07:38:53.347Z,12.25
2022-10-25T07:41:20.009Z,13.40
2022-10-25T07:43:46.751Z,12.98
2022-10-25T07:46:13.657Z,13.55
2022-10-25T07:48:40.468Z,11.48
2022-10-25T07:51:10.745Z,12.82
2022-10-25T07:53:37.466Z,12.05
2022-10-25T07:56:04.411Z,12.52
2022-10-25T07:58:31.694Z,10.73
2022-10-25T08:01:06.233Z,12.02
2022-10-25T08:03:33.020Z,11.13
2022-10-25T08:06:00.500Z,12.13
2022-10-25T08:08:27.456Z,11.50
2022-10-25T08:10:54.462Z,12.45
2022-10-25T08:13:21.113Z,12.80
2022-10-25T08:15:52.260Z,12.25
2022-10-25T08:18:19.032Z,12.15
2022-10-25T08:21:03.087Z,11.50
2022-10-25T08:23:32.203Z,9.95
2022-10-25T08:26:00.010Z,11.57
2022-10-25T08:28:26.781Z,10.68
2022-10-25T08:30:55.439Z,10.45
2022-10-25T08:33:22.865Z,11.68
2022-10-25T08:35:50.206Z,12.00
2022-10-25T08:38:17.068Z,12.43
2022-10-25T08:40:52.509Z,14.02
2022-10-25T08:43:37.660Z,12.23
2022-10-25T08:46:17.774Z,11.90
2022-10-25T08:48:53.854Z,10.90
2022-10-25T08:51:33.509Z,11.82
2022-10-25T08:54:06.031Z,11.70
2022-10-25T08:56:35.461Z,11.35
2022-10-25T08:59:06.496Z,13.27
2022-10-25T09:01:43.252Z,16.77
2022-10-25T09:04:10.563Z,15.70
2022-10-25T09:06:51.276Z,14.73
2022-10-25T09:09:25.169Z,13.52
2022-10-25T09:12:05.169Z,17.50
2022-10-25T09:14:44.115Z,14.18
2022-10-25T09:17:19.604Z,15.10
2022-10-25T09:19:49.345Z,15.32
2022-10-25T09:22:28.571Z,14.02
2022-10-25T09:25:05.223Z,15.60
2022-10-25T09:28:03.669Z,16.13
2022-10-25T09:30:35.361Z,16.73
2022-10-25T09:33:09.127Z,18.27
2022-10-25T09:35:46.339Z,18.42
2022-10-25T09:38:19.569Z,18.02
2022-10-25T09:40:49.919Z,18.42
2022-10-25T09:43:23.015Z,18.48
2022-10-25T09:45:55.533Z,20.33
2022-10-25T09:48:40.481Z,18.88
2022-10-25T09:51:15.250Z,19.10
2022-10-25T09:53:44.949Z,21.63
2022-10-25T09:56:12.332Z,20.50
2022-10-25T09:58:42.439Z,19.02
2022-10-25T10:01:21.539Z,19.88
2022-10-25T10:03:52.396Z,17.95
2022-10-25T10:06:31.477Z,19.60
2022-10-25T10:09:00.799Z,18.30
2022-10-25T10:11:29.078Z,19.65
2022-10-25T10:14:16.016Z,17.83
2022-10-25T10:16:47.654Z,17.73
2022-10-25T10:19:21.403Z,19.33
2022-10-25T10:21:54.913Z,17.83
2022-10-25T10:24:36.808Z,18.23
2022-10-25T10:27:22.095Z,19.10
2022-10-25T10:30:07.203Z,16.85
2022-10-25T10:35:27.936Z,17.08
2022-10-25T10:38:12.921Z,17.52
2022-10-25T10:40:39.565Z,17.77
2022-10-25T10:43:23.999Z,18.48
2022-10-25T10:45:51.560Z,19.58
2022-10-25T10:48:22.092Z,19.15
2022-10-25T10:50:50.804Z,20.77
2022-10-25T10:53:22.795Z,21.50
2022-10-25T10:55:53.932Z,22.42
2022-10-25T10:58:26.459Z,23.48
2022-10-25T11:01:05.750Z,22.33
2022-10-25T11:03:48.916Z,22.52
2022-10-25T11:06:30.157Z,21.25
2022-10-25T11:09:12.479Z,20.92
2022-10-25T11:11:40.091Z,20.50
2022-10-25T11:14:15.136Z,21.77
2022-10-25T11:19:40.541Z,21.40
2022-10-25T11:22:32.121Z,22.08
2022-10-25T11:25:08.542Z,22.38
2022-10-25T11:28:02.930Z,21.67
2022-10-25T11:30:58.018Z,23.55
2022-10-25T11:33:42.597Z,23.17
2022-10-25T11:36:32.367Z,23.77
2022-10-25T11:39:18.169Z,21.95
2022-10-25T11:41:48.811Z,22.58
2022-10-25T11:44:41.694Z,22.55
2022-10-25T11:47:24.428Z,24.38
2022-10-25T11:50:24.558Z,22.65
2022-10-25T11:53:06.115Z,22.60
2022-10-25T11:55:45.761Z,23.55
2022-10-25T11:58:38.308Z,23.17
2022-10-25T12:01:29.783Z,22.83
2022-10-25T12:04:18.743Z,23.23
2022-10-25T12:07:20.657Z,24.80
2022-10-25T12:10:02.985Z,23.48
2022-10-25T12:12:51.475Z,23.02
2022-10-25T12:15:26.930Z,23.65
2022-10-25T12:17:53.840Z,22.33
2022-10-25T12:20:25.187Z,21.73
2022-10-25T12:22:56.655Z,21.25
2022-10-25T12:25:33.758Z,20.77
2022-10-25T12:28:09.789Z,20.67
2022-10-25T12:30:37.877Z,20.25
2022-10-25T12:33:25.151Z,20.20
2022-10-25T12:35:58.423Z,20.92
2022-10-25T12:38:37.263Z,20.65
2022-10-25T12:41:08.959Z,21.92
2022-10-25T12:43:44.089Z,23.13
2022-10-25T12:48:52.608Z,23.65
2022-10-25T12:51:40.939Z,22.25
2022-10-25T12:54:15.603Z,20.98
2022-10-25T12:57:10.767Z,22.05
2022-10-25T13:00:04.498Z,23.13
2022-10-25T13:03:02.194Z,23.63
2022-10-25T13:05:53.661Z,24.15
2022-10-25T13:08:23.205Z,23.73
2022-10-25T13:11:03.935Z,23.00
2022-10-25T13:13:49.477Z,25.23
2022-10-25T13:16:28.529Z,24.13
2022-10-25T13:19:25.864Z,23.70
2022-10-25T13:22:12.507Z,24.35
2022-10-25T13:24:40.664Z,25.13
2022-10-25T13:27:13.539Z,27.42
2022-10-25T13:33:18.694Z,25.95
2022-10-25T13:35:48.051Z,26.63
2022-10-25T13:38:22.999Z,26.98
2022-10-25T13:41:16.936Z,26.30
2022-10-25T13:44:03.584Z,25.05
2022-10-25T13:46:33.786Z,24.42
2022-10-25T13:49:03.079Z,24.65
2022-10-25T13:51:31.965Z,26.35
2022-10-25T13:54:05.992Z,27.30
2022-10-25T13:56:36.674Z,26.65
2022-10-25T13:59:03.942Z,26.40
2022-10-25T14:01:31.371Z,26.13
2022-10-25T14:04:34.573Z,24.63
2022-10-25T14:07:40.837Z,27.10
2022-10-25T14:10:15.755Z,25.50
2022-10-25T14:12:48.558Z,26.63
2022-10-25T14:15:24.499Z,26.10
2022-10-25T14:17:52.582Z,23.77
2022-10-25T14:20:29.933Z,23.98
2022-10-25T14:23:06.860Z,23.90
2022-10-25T14:25:37.872Z,25.42
2022-10-25T14:28:10.480Z,24.95
2022-10-25T14:30:59.564Z,26.10
2022-10-25T14:33:45.834Z,25.85
2022-10-25T14:36:33.989Z,26.20
2022-10-25T14:39:20.363Z,25.98
2022-10-25T14:41:56.075Z,26.25
2022-10-25T14:44:28.423Z,27.15
2022-10-25T14:46:59.905Z,27.30
2022-10-25T14:49:27.351Z,27.85
2022-10-25T14:51:59.417Z,28.67
2022-10-25T14:54:36.418Z,28.50
2022-10-25T14:57:06.411Z,27.67
2022-10-25T14:59:50.735Z,28.75
2022-10-25T15:02:34.980Z,29.80
2022-10-25T15:05:02.922Z,27.90
2022-10-25T15:07:30.771Z,28.20
2022-10-25T15:10:00.483Z,28.88
2022-10-25T15:12:28.953Z,27.45
2022-10-25T15:14:57.829Z,29.42
2022-10-25T15:17:30.413Z,29.35
2022-10-25T15:22:37.351Z,28.65
2022-10-25T15:25:24.268Z,27.83
2022-10-25T15:27:54.674Z,27.88
2022-10-25T15:30:48.443Z,26.98
2022-10-25T15:33:20.106Z,27.70
2022-10-25T15:35:58.351Z,27.63
2022-10-25T15:39:05.319Z,27.02
2022-10-25T15:41:23.423Z,27.13
2022-10-25T15:43:50.861Z,26.52
2022-10-25T15:46:30.814Z,27.80
2022-10-25T15:49:04.497Z,29.77
2022-10-25T15:51:37.369Z,29.13
2022-10-25T15:54:04.088Z,31.95
2022-10-25T15:56:30.705Z,38.22
2022-10-25T15:59:00.145Z,35.58
2022-10-25T16:01:26.951Z,31.88
2022-10-25T16:03:53.653Z,32.13
2022-10-25T16:06:20.248Z,31.25
2022-10-25T16:08:46.843Z,31.70
2022-10-25T16:11:17.360Z,33.35
2022-10-25T16:13:46.090Z,36.03
2022-10-25T16:16:39.965Z,34.78
2022-10-25T16:19:15.745Z,37.22
2022-10-25T16:21:43.043Z,33.13
2022-10-25T16:24:10.982Z,35.08
2022-10-25T16:26:48.185Z,39.30
2022-10-25T16:29:25.207Z,40.60
2022-10-25T16:31:52.536Z,45.60
2022-10-25T16:34:19.469Z,36.13
2022-10-25T16:36:47.346Z,45.38
2022-10-25T16:39:14.215Z,42.15
2022-10-25T16:41:43.562Z,31.48
2022-10-25T16:44:15.545Z,27.70
2022-10-25T16:46:42.478Z,33.47
2022-10-25T16:49:09.394Z,32.05
2022-10-25T16:51:37.169Z,58.20
2022-10-25T16:54:04.121Z,28.25
2022-10-25T16:56:30.768Z,74.47
2022-10-25T16:58:57.389Z,158.52
2022-10-25T17:01:34.769Z,123.13
2022-10-25T17:04:03.452Z,131.48
2022-10-25T17:06:45.417Z,88.10
2022-10-25T17:09:12.216Z,80.63
2022-10-25T17:11:38.936Z,79.45
2022-10-25T17:14:05.857Z,66.25
2022-10-25T17:16:33.176Z,67.78
2022-10-25T17:19:00.168Z,47.97
2022-10-25T17:21:28.130Z,47.67
2022-10-25T17:23:56.223Z,44.40
2022-10-25T17:26:22.978Z,36.95
2022-10-25T17:28:49.619Z,34.45
2022-10-25T17:31:16.671Z,35.47
2022-10-25T17:33:43.365Z,33.50
2022-10-25T17:36:14.033Z,33.22
2022-10-25T17:38:41.344Z,36.03
2022-10-25T17:41:08.431Z,34.08
2022-10-25T17:43:36.180Z,36.58
2022-10-25T17:46:09.151Z,46.95
2022-10-25T17:48:35.773Z,43.05
2022-10-25T17:51:05.211Z,41.88
2022-10-25T17:53:32.123Z,43.47
2022-10-25T17:55:59.156Z,42.35
2022-10-25T17:58:25.975Z,38.83
2022-10-25T18:00:54.271Z,47.80
2022-10-25T18:03:21.189Z,35.10
2022-10-25T18:05:48.327Z,28.52
2022-10-25T18:08:15.417Z,28.17
2022-10-25T18:10:42.050Z,26.50
2022-10-25T18:13:08.683Z,27.92
2022-10-25T18:15:38.137Z,26.40
2022-10-25T18:18:04.779Z,25.65
2022-10-25T18:20:31.373Z,25.45
2022-10-25T18:22:57.973Z,24.73
2022-10-25T18:25:24.596Z,24.48
2022-10-25T18:27:51.634Z,25.55
2022-10-25T18:30:18.356Z,24.77
2022-10-25T18:32:45.355Z,27.17
2022-10-25T18:35:11.998Z,32.03
2022-10-25T18:37:38.603Z,29.88
2022-10-25T18:40:06.428Z,30.55
2022-10-25T18:42:35.345Z,27.67
2022-10-25T18:45:02.926Z,28.25
2022-10-25T18:47:29.572Z,25.67
2022-10-25T18:49:56.186Z,36.50
2022-10-25T18:52:23.231Z,35.33
2022-10-25T18:54:49.923Z,32.75
2022-10-25T18:57:17.507Z,42.13
2022-10-25T18:59:44.134Z,44.08
2022-10-25T19:02:11.506Z,44.42
2022-10-25T19:04:38.412Z,43.22
2022-10-25T19:07:05.043Z,46.65
2022-10-25T19:09:31.651Z,49.60
2022-10-25T19:11:58.249Z,50.28
2022-10-25T19:14:24.852Z,45.35
2022-10-25T19:16:51.517Z,47.85
2022-10-25T19:19:18.092Z,49.35
2022-10-25T19:21:44.790Z,48.88
2022-10-25T19:24:15.602Z,40.40
2022-10-25T19:26:42.288Z,36.03
2022-10-25T19:29:09.596Z,46.35
2022-10-25T19:31:36.286Z,38.45
2022-10-25T19:34:03.141Z,36.80
2022-10-25T19:36:30.323Z,46.22
2022-10-25T19:38:57.047Z,34.13
2022-10-25T19:41:25.597Z,36.78
2022-10-25T19:43:52.751Z,36.08
2022-10-25T19:46:19.746Z,28.73
2022-10-25T19:48:46.573Z,25.13
2022-10-25T19:51:15.918Z,24.75
2022-10-25T19:53:43.022Z,23.42
2022-10-25T19:56:13.245Z,22.98
2022-10-25T19:58:40.512Z,22.33
2022-10-25T20:01:13.450Z,22.05
2022-10-25T20:03:41.180Z,22.65
2022-10-25T20:06:17.479Z,23.05
2022-10-25T20:08:47.256Z,22.25
2022-10-25T20:11:15.495Z,21.63
2022-10-25T20:13:42.216Z,21.17
2022-10-25T20:16:10.005Z,20.63
2022-10-25T20:18:38.551Z,21.83
2022-10-25T20:21:07.271Z,23.15
2022-10-25T20:23:35.104Z,26.13
2022-10-25T20:26:15.789Z,24.13
2022-10-25T20:28:43.130Z,22.85
2022-10-25T20:31:10.531Z,21.00
2022-10-25T20:33:37.639Z,19.50
2022-10-25T20:36:07.447Z,17.88
2022-10-25T20:41:21.043Z,37.35
2022-10-25T20:43:50.143Z,21.92
2022-10-25T20:46:17.622Z,21.35
2022-10-25T20:48:45.591Z,18.92
2022-10-25T20:51:15.438Z,19.77
2022-10-25T20:53:46.298Z,22.92
2022-10-25T20:56:13.537Z,23.13
2022-10-25T20:58:41.375Z,21.77
2022-10-25T21:01:08.891Z,19.67
2022-10-25T21:03:36.102Z,22.48
2022-10-25T21:06:05.164Z,19.38
2022-10-25T21:08:32.757Z,18.08
2022-10-25T21:11:01.925Z,15.80
2022-10-25T21:13:33.457Z,14.80
2022-10-25T21:16:06.124Z,17.20
2022-10-25T21:18:33.236Z,18.48
2022-10-25T21:21:02.156Z,23.70
2022-10-25T21:23:28.849Z,21.38
2022-10-25T21:26:03.767Z,21.95
2022-10-25T21:31:09.838Z,21.65
2022-10-25T21:33:36.530Z,20.90
2022-10-25T21:36:11.590Z,15.02
2022-10-25T21:38:38.774Z,14.10
2022-10-25T21:41:13.695Z,13.70
2022-10-25T21:46:13.408Z,14.00
2022-10-25T21:48:40.536Z,13.20
2022-10-25T21:51:07.302Z,13.60
2022-10-25T21:53:33.938Z,15.35
2022-10-25T21:56:10.959Z,15.00
2022-10-25T21:58:41.920Z,14.50
2022-10-25T22:01:14.584Z,14.18
2022-10-25T22:03:41.632Z,14.27
2022-10-25T22:06:10.291Z,13.70
2022-10-25T22:08:37.080Z,14.07
2022-10-25T22:11:10.739Z,14.00
2022-10-25T22:13:37.331Z,14.55
2022-10-25T22:16:10.311Z,16.55
2022-10-25T22:18:37.220Z,17.15
2022-10-25T22:21:12.026Z,20.65
2022-10-25T22:23:39.629Z,26.33
2022-10-25T22:26:09.088Z,25.10
2022-10-25T22:28:39.814Z,22.92
2022-10-25T22:31:09.633Z,24.75
2022-10-25T22:33:36.900Z,22.98
2022-10-25T22:36:12.016Z,21.98
2022-10-25T22:38:39.203Z,22.77
2022-10-25T22:41:11.705Z,27.40
2022-10-25T22:43:39.214Z,27.17
2022-10-25T22:46:10.245Z,16.45
2022-10-25T22:48:38.356Z,14.18
2022-10-25T22:51:06.243Z,12.52
2022-10-25T22:53:35.349Z,12.02
2022-10-25T22:56:05.310Z,11.57
2022-10-25T22:58:33.738Z,11.80
2022-10-25T23:01:08.680Z,12.25
2022-10-25T23:03:43.779Z,17.92
2022-10-25T23:06:14.000Z,15.15
2022-10-25T23:08:41.598Z,15.52
2022-10-25T23:11:28.458Z,21.13
2022-10-25T23:13:57.240Z,17.70
2022-10-25T23:16:24.324Z,15.82
2022-10-25T23:18:51.471Z,14.30
2022-10-25T23:21:23.798Z,15.10
2022-10-25T23:23:52.647Z,13.73
2022-10-25T23:26:25.019Z,13.98
2022-10-25T23:28:51.980Z,14.23
2022-10-25T23:31:18.753Z,13.18
2022-10-25T23:33:45.594Z,11.90
2022-10-25T23:36:15.533Z,12.00
2022-10-25T23:38:43.337Z,11.70
2022-10-25T23:41:10.028Z,11.35
2022-10-25T23:43:37.012Z,11.52
2022-10-25T23:46:04.659Z,11.43
2022-10-25T23:48:31.450Z,11.57
2022-10-25T23:53:33.635Z,11.35
2022-10-25T23:56:01.242Z,12.75
2022-10-25T23:58:28.326Z,12.57
